sensor_id;sensor_type;location;lat;lon;timestamp;pressure;altitude;pressure_sealevel;temperature;humidity
21574;BME280;10948;48.706;9.258;2023-04-25T00:00:45;97171.44;;;10.48;100.00
21574;BME280;10948;48.706;9.258;2023-04-25T00:03:10;97165.50;;;10.46;100.00
21574;BME280;10948;48.706;9.258;2023-04-25T00:05:36;97165.50;;;10.46;100.00
21574;BME280;10948;48.706;9.258;2023-04-25T00:08:02;97163.63;;;10.48;100.00
21574;BME280;10948;48.706;9.258;2023-04-25T00:10:27;97163.63;;;10.48;100.00
21574;BME280;10948;48.706;9.258;2023-04-25T00:12:52;97170.94;;;10.43;100.00
21574;BME280;10948;48.706;9.258;2023-04-25T00:15:18;97166.88;;;10.39;100.00
21574;BME280;10948;48.706;9.258;2023-04-25T00:17:43;97149.09;;;10.33;100.00
21574;BME280;10948;48.706;9.258;2023-04-25T00:20:10;97152.72;;;10.31;100.00
21574;BME280;10948;48.706;9.258;2023-04-25T00:22:36;97149.28;;;10.18;100.00
21574;BME280;10948;48.706;9.258;2023-04-25T00:25:03;97150.75;;;10.22;100.00
21574;BME280;10948;48.706;9.258;2023-04-25T00:27:28;97146.19;;;10.25;100.00
21574;BME280;10948;48.706;9.258;2023-04-25T00:29:54;97150.44;;;10.26;100.00
21574;BME280;10948;48.706;9.258;2023-04-25T00:32:19;97153.56;;;10.31;100.00
21574;BME280;10948;48.706;9.258;2023-04-25T00:34:44;97152.81;;;10.29;100.00
21574;BME280;10948;48.706;9.258;2023-04-25T00:37:10;97149.09;;;10.21;100.00
21574;BME280;10948;48.706;9.258;2023-04-25T00:39:35;97161.38;;;10.31;100.00
21574;BME280;10948;48.706;9.258;2023-04-25T00:42:00;97152.00;;;10.29;100.00
21574;BME280;10948;48.706;9.258;2023-04-25T00:44:27;97148.84;;;10.36;100.00
21574;BME280;10948;48.706;9.258;2023-04-25T00:46:53;97146.47;;;10.33;100.00
21574;BME280;10948;48.706;9.258;2023-04-25T00:49:18;97150.31;;;10.40;100.00
21574;BME280;10948;48.706;9.258;2023-04-25T00:51:43;97147.00;;;10.38;100.00
21574;BME280;10948;48.706;9.258;2023-04-25T00:54:10;97139.94;;;10.28;100.00
21574;BME280;10948;48.706;9.258;2023-04-25T00:56:36;97137.44;;;10.26;100.00
21574;BME280;10948;48.706;9.258;2023-04-25T00:59:01;97142.53;;;10.28;100.00
21574;BME280;10948;48.706;9.258;2023-04-25T01:01:26;97137.34;;;10.15;100.00
21574;BME280;10948;48.706;9.258;2023-04-25T01:03:53;97135.34;;;10.19;100.00
21574;BME280;10948;48.706;9.258;2023-04-25T01:06:18;97133.91;;;10.27;100.00
21574;BME280;10948;48.706;9.258;2023-04-25T01:08:44;97134.50;;;10.31;100.00
21574;BME280;10948;48.706;9.258;2023-04-25T01:11:09;97127.97;;;10.25;100.00
21574;BME280;10948;48.706;9.258;2023-04-25T01:13:35;97127.44;;;10.33;100.00
21574;BME280;10948;48.706;9.258;2023-04-25T01:16:00;97128.31;;;10.21;100.00
21574;BME280;10948;48.706;9.258;2023-04-25T01:18:26;97125.44;;;10.36;100.00
21574;BME280;10948;48.706;9.258;2023-04-25T01:20:52;97122.22;;;10.45;100.00
21574;BME280;10948;48.706;9.258;2023-04-25T01:23:18;97113.47;;;10.46;100.00
21574;BME280;10948;48.706;9.258;2023-04-25T01:25:43;97118.53;;;10.24;100.00
21574;BME280;10948;48.706;9.258;2023-04-25T01:28:09;97110.59;;;10.26;100.00
21574;BME280;10948;48.706;9.258;2023-04-25T01:30:35;97113.28;;;10.37;100.00
21574;BME280;10948;48.706;9.258;2023-04-25T01:33:00;97107.75;;;10.41;100.00
21574;BME280;10948;48.706;9.258;2023-04-25T01:35:26;97102.28;;;10.33;100.00
21574;BME280;10948;48.706;9.258;2023-04-25T01:37:51;97114.31;;;10.34;100.00
21574;BME280;10948;48.706;9.258;2023-04-25T01:40:17;97115.38;;;10.44;100.00
21574;BME280;10948;48.706;9.258;2023-04-25T01:42:43;97119.44;;;10.36;100.00
21574;BME280;10948;48.706;9.258;2023-04-25T01:45:09;97115.13;;;10.47;100.00
21574;BME280;10948;48.706;9.258;2023-04-25T01:47:35;97111.81;;;10.45;100.00
21574;BME280;10948;48.706;9.258;2023-04-25T01:50:02;97113.72;;;10.43;100.00
21574;BME280;10948;48.706;9.258;2023-04-25T01:52:27;97113.91;;;10.40;100.00
21574;BME280;10948;48.706;9.258;2023-04-25T01:54:52;97119.63;;;10.45;100.00
21574;BME280;10948;48.706;9.258;2023-04-25T01:57:18;97112.66;;;10.33;100.00
21574;BME280;10948;48.706;9.258;2023-04-25T01:59:43;97111.22;;;10.29;100.00
21574;BME280;10948;48.706;9.258;2023-04-25T02:02:08;97108.72;;;10.40;100.00
21574;BME280;10948;48.706;9.258;2023-04-25T02:04:34;97120.19;;;10.25;100.00
21574;BME280;10948;48.706;9.258;2023-04-25T02:06:59;97108.31;;;10.34;100.00
21574;BME280;10948;48.706;9.258;2023-04-25T02:09:24;97103.22;;;10.32;100.00
21574;BME280;10948;48.706;9.258;2023-04-25T02:11:50;97095.94;;;10.37;100.00
21574;BME280;10948;48.706;9.258;2023-04-25T02:14:15;97102.91;;;10.24;100.00
21574;BME280;10948;48.706;9.258;2023-04-25T02:16:40;97095.13;;;10.24;100.00
21574;BME280;10948;48.706;9.258;2023-04-25T02:19:05;97101.25;;;10.23;100.00
21574;BME280;10948;48.706;9.258;2023-04-25T02:21:31;97098.13;;;10.18;100.00
21574;BME280;10948;48.706;9.258;2023-04-25T02:23:56;97090.13;;;10.21;100.00
21574;BME280;10948;48.706;9.258;2023-04-25T02:26:22;97090.44;;;10.17;100.00
21574;BME280;10948;48.706;9.258;2023-04-25T02:28:48;97090.53;;;10.15;100.00
21574;BME280;10948;48.706;9.258;2023-04-25T02:31:14;97086.09;;;10.17;100.00
21574;BME280;10948;48.706;9.258;2023-04-25T02:33:39;97086.78;;;10.19;100.00
21574;BME280;10948;48.706;9.258;2023-04-25T02:36:05;97083.59;;;10.16;100.00
21574;BME280;10948;48.706;9.258;2023-04-25T02:38:30;97083.16;;;10.22;100.00
21574;BME280;10948;48.706;9.258;2023-04-25T02:40:55;97082.41;;;10.20;100.00
21574;BME280;10948;48.706;9.258;2023-04-25T02:43:20;97078.72;;;10.11;100.00
21574;BME280;10948;48.706;9.258;2023-04-25T02:45:47;97083.38;;;10.06;100.00
21574;BME280;10948;48.706;9.258;2023-04-25T02:48:12;97080.69;;;10.08;100.00
21574;BME280;10948;48.706;9.258;2023-04-25T02:50:37;97076.91;;;9.99;100.00
21574;BME280;10948;48.706;9.258;2023-04-25T02:53:02;97075.03;;;10.01;100.00
21574;BME280;10948;48.706;9.258;2023-04-25T02:55:28;97077.53;;;10.03;100.00
21574;BME280;10948;48.706;9.258;2023-04-25T02:57:53;97077.53;;;10.03;100.00
21574;BME280;10948;48.706;9.258;2023-04-25T03:00:20;97086.28;;;10.02;100.00
21574;BME280;10948;48.706;9.258;2023-04-25T03:02:45;97080.06;;;10.04;100.00
21574;BME280;10948;48.706;9.258;2023-04-25T03:05:11;97078.97;;;9.94;100.00
21574;BME280;10948;48.706;9.258;2023-04-25T03:07:36;97075.44;;;9.95;100.00
21574;BME280;10948;48.706;9.258;2023-04-25T03:10:01;97081.28;;;9.86;100.00
21574;BME280;10948;48.706;9.258;2023-04-25T03:12:27;97080.03;;;9.79;100.00
21574;BME280;10948;48.706;9.258;2023-04-25T03:14:52;97074.63;;;9.82;100.00
21574;BME280;10948;48.706;9.258;2023-04-25T03:17:17;97073.47;;;9.86;100.00
21574;BME280;10948;48.706;9.258;2023-04-25T03:19:43;97075.47;;;9.83;100.00
21574;BME280;10948;48.706;9.258;2023-04-25T03:22:08;97077.44;;;9.79;100.00
21574;BME280;10948;48.706;9.258;2023-04-25T03:24:34;97069.84;;;9.76;100.00
21574;BME280;10948;48.706;9.258;2023-04-25T03:27:00;97063.59;;;9.79;100.00
21574;BME280;10948;48.706;9.258;2023-04-25T03:29:25;97068.94;;;9.77;100.00
21574;BME280;10948;48.706;9.258;2023-04-25T03:31:51;97071.53;;;9.77;100.00
21574;BME280;10948;48.706;9.258;2023-04-25T03:34:16;97067.88;;;9.67;100.00
21574;BME280;10948;48.706;9.258;2023-04-25T03:36:41;97071.72;;;9.74;100.00
21574;BME280;10948;48.706;9.258;2023-04-25T03:39:07;97064.97;;;9.84;100.00
21574;BME280;10948;48.706;9.258;2023-04-25T03:41:32;97066.94;;;9.81;100.00
21574;BME280;10948;48.706;9.258;2023-04-25T03:43:57;97061.22;;;9.63;100.00
21574;BME280;10948;48.706;9.258;2023-04-25T03:46:22;97067.34;;;9.62;100.00
21574;BME280;10948;48.706;9.258;2023-04-25T03:48:48;97057.69;;;9.64;100.00
21574;BME280;10948;48.706;9.258;2023-04-25T03:51:13;97060.06;;;9.67;100.00
21574;BME280;10948;48.706;9.258;2023-04-25T03:53:38;97056.75;;;9.65;100.00
21574;BME280;10948;48.706;9.258;2023-04-25T03:56:03;97062.56;;;9.56;100.00
21574;BME280;10948;48.706;9.258;2023-04-25T03:58:29;97069.75;;;9.65;100.00
21574;BME280;10948;48.706;9.258;2023-04-25T04:00:54;97072.75;;;9.59;100.00
21574;BME280;10948;48.706;9.258;2023-04-25T04:03:21;97067.56;;;9.59;100.00
21574;BME280;10948;48.706;9.258;2023-04-25T04:05:46;97068.28;;;9.61;100.00
21574;BME280;10948;48.706;9.258;2023-04-25T04:08:12;97069.41;;;9.32;100.00
21574;BME280;10948;48.706;9.258;2023-04-25T04:10:37;97068.25;;;9.36;100.00
21574;BME280;10948;48.706;9.258;2023-04-25T04:13:02;97065.69;;;9.49;100.00
21574;BME280;10948;48.706;9.258;2023-04-25T04:15:29;97071.69;;;9.49;100.00
21574;BME280;10948;48.706;9.258;2023-04-25T04:17:54;97065.78;;;9.47;100.00
21574;BME280;10948;48.706;9.258;2023-04-25T04:20:20;97067.53;;;9.34;100.00
21574;BME280;10948;48.706;9.258;2023-04-25T04:22:46;97068.28;;;9.49;100.00
21574;BME280;10948;48.706;9.258;2023-04-25T04:25:11;97075.53;;;9.56;100.00
21574;BME280;10948;48.706;9.258;2023-04-25T04:27:37;97074.00;;;9.54;100.00
21574;BME280;10948;48.706;9.258;2023-04-25T04:30:02;97076.06;;;9.61;100.00
21574;BME280;10948;48.706;9.258;2023-04-25T04:32:28;97080.56;;;9.59;100.00
21574;BME280;10948;48.706;9.258;2023-04-25T04:34:55;97082.94;;;9.62;100.00
21574;BME280;10948;48.706;9.258;2023-04-25T04:37:20;97086.28;;;9.64;100.00
21574;BME280;10948;48.706;9.258;2023-04-25T04:39:46;97077.53;;;9.65;100.00
21574;BME280;10948;48.706;9.258;2023-04-25T04:42:12;97081.72;;;9.68;100.00
21574;BME280;10948;48.706;9.258;2023-04-25T04:44:38;97093.03;;;9.67;100.00
21574;BME280;10948;48.706;9.258;2023-04-25T04:47:04;97083.75;;;9.75;100.00
21574;BME280;10948;48.706;9.258;2023-04-25T04:49:31;97074.53;;;9.84;100.00
21574;BME280;10948;48.706;9.258;2023-04-25T04:51:56;97084.91;;;9.84;100.00
21574;BME280;10948;48.706;9.258;2023-04-25T04:54:21;97092.28;;;10.02;100.00
21574;BME280;10948;48.706;9.258;2023-04-25T04:56:47;97095.84;;;9.89;100.00
21574;BME280;10948;48.706;9.258;2023-04-25T04:59:12;97100.63;;;10.07;100.00
21574;BME280;10948;48.706;9.258;2023-04-25T05:01:37;97100.00;;;9.91;100.00
21574;BME280;10948;48.706;9.258;2023-04-25T05:04:02;97098.53;;;10.00;100.00
21574;BME280;10948;48.706;9.258;2023-04-25T05:06:28;97107.50;;;10.08;100.00
21574;BME280;10948;48.706;9.258;2023-04-25T05:08:55;97100.00;;;10.16;100.00
21574;BME280;10948;48.706;9.258;2023-04-25T05:11:21;97109.16;;;10.09;100.00
21574;BME280;10948;48.706;9.258;2023-04-25T05:13:47;97104.78;;;10.22;100.00
21574;BME280;10948;48.706;9.258;2023-04-25T05:16:12;97099.16;;;10.28;100.00
21574;BME280;10948;48.706;9.258;2023-04-25T05:18:38;97101.44;;;10.33;100.00
21574;BME280;10948;48.706;9.258;2023-04-25T05:21:05;97109.34;;;10.31;100.00
21574;BME280;10948;48.706;9.258;2023-04-25T05:23:31;97105.81;;;10.20;100.00
21574;BME280;10948;48.706;9.258;2023-04-25T05:25:57;97102.91;;;10.24;100.00
21574;BME280;10948;48.706;9.258;2023-04-25T05:28:22;97103.88;;;10.23;100.00
21574;BME280;10948;48.706;9.258;2023-04-25T05:30:48;97105.38;;;10.26;100.00
21574;BME280;10948;48.706;9.258;2023-04-25T05:33:13;97112.28;;;10.27;100.00
21574;BME280;10948;48.706;9.258;2023-04-25T05:35:38;97111.66;;;10.23;100.00
21574;BME280;10948;48.706;9.258;2023-04-25T05:38:03;97109.56;;;10.16;100.00
21574;BME280;10948;48.706;9.258;2023-04-25T05:40:29;97111.13;;;10.18;100.00
21574;BME280;10948;48.706;9.258;2023-04-25T05:42:54;97119.84;;;10.30;100.00
21574;BME280;10948;48.706;9.258;2023-04-25T05:45:19;97116.00;;;10.35;100.00
21574;BME280;10948;48.706;9.258;2023-04-25T05:47:44;97119.09;;;10.40;100.00
21574;BME280;10948;48.706;9.258;2023-04-25T05:50:10;97122.66;;;10.39;100.00
21574;BME280;10948;48.706;9.258;2023-04-25T05:52:35;97117.03;;;10.45;100.00
21574;BME280;10948;48.706;9.258;2023-04-25T05:55:01;97121.19;;;10.35;100.00
21574;BME280;10948;48.706;9.258;2023-04-25T05:57:26;97113.25;;;10.49;100.00
21574;BME280;10948;48.706;9.258;2023-04-25T05:59:52;97108.84;;;10.62;100.00
21574;BME280;10948;48.706;9.258;2023-04-25T06:02:18;97102.75;;;10.87;100.00
21574;BME280;10948;48.706;9.258;2023-04-25T06:04:43;97116.75;;;11.20;100.00
21574;BME280;10948;48.706;9.258;2023-04-25T06:07:08;97117.03;;;11.28;100.00
21574;BME280;10948;48.706;9.258;2023-04-25T06:09:34;97117.44;;;11.11;100.00
21574;BME280;10948;48.706;9.258;2023-04-25T06:11:59;97112.56;;;11.06;100.00
21574;BME280;10948;48.706;9.258;2023-04-25T06:14:26;97115.78;;;11.10;100.00
21574;BME280;10948;48.706;9.258;2023-04-25T06:16:51;97123.13;;;11.16;100.00
21574;BME280;10948;48.706;9.258;2023-04-25T06:19:17;97118.38;;;11.10;100.00
21574;BME280;10948;48.706;9.258;2023-04-25T06:21:43;97113.03;;;11.11;100.00
21574;BME280;10948;48.706;9.258;2023-04-25T06:24:08;97109.16;;;11.40;98.23
21574;BME280;10948;48.706;9.258;2023-04-25T06:26:33;97103.88;;;11.53;96.05
21574;BME280;10948;48.706;9.258;2023-04-25T06:28:58;97101.09;;;11.67;95.53
21574;BME280;10948;48.706;9.258;2023-04-25T06:31:24;97093.63;;;11.62;96.02
21574;BME280;10948;48.706;9.258;2023-04-25T06:33:50;97103.34;;;11.71;95.38
21574;BME280;10948;48.706;9.258;2023-04-25T06:36:15;97093.88;;;11.59;96.79
21574;BME280;10948;48.706;9.258;2023-04-25T06:38:41;97096.44;;;11.36;98.16
21574;BME280;10948;48.706;9.258;2023-04-25T06:41:06;97088.56;;;11.48;98.81
21574;BME280;10948;48.706;9.258;2023-04-25T06:43:32;97086.47;;;11.19;96.34
21574;BME280;10948;48.706;9.258;2023-04-25T06:45:59;97092.38;;;11.21;95.50
21574;BME280;10948;48.706;9.258;2023-04-25T06:48:24;97094.03;;;11.22;91.01
21574;BME280;10948;48.706;9.258;2023-04-25T06:50:50;97100.44;;;11.18;90.58
21574;BME280;10948;48.706;9.258;2023-04-25T06:53:15;97098.31;;;11.23;90.82
21574;BME280;10948;48.706;9.258;2023-04-25T06:55:41;97095.13;;;11.19;90.68
21574;BME280;10948;48.706;9.258;2023-04-25T06:58:07;97102.09;;;11.19;91.16
21574;BME280;10948;48.706;9.258;2023-04-25T07:00:32;97101.56;;;11.14;91.20
21574;BME280;10948;48.706;9.258;2023-04-25T07:02:58;97098.19;;;11.24;90.26
21574;BME280;10948;48.706;9.258;2023-04-25T07:05:24;97096.63;;;11.22;90.41
21574;BME280;10948;48.706;9.258;2023-04-25T07:07:49;97105.13;;;11.13;90.26
21574;BME280;10948;48.706;9.258;2023-04-25T07:10:14;97107.78;;;11.24;89.97
21574;BME280;10948;48.706;9.258;2023-04-25T07:12:40;97114.09;;;11.09;90.68
21574;BME280;10948;48.706;9.258;2023-04-25T07:15:05;97116.56;;;11.23;90.15
21574;BME280;10948;48.706;9.258;2023-04-25T07:17:33;97112.41;;;11.20;90.30
21574;BME280;10948;48.706;9.258;2023-04-25T07:19:58;97114.84;;;11.11;89.64
21574;BME280;10948;48.706;9.258;2023-04-25T07:22:24;97118.69;;;11.05;89.84
21574;BME280;10948;48.706;9.258;2023-04-25T07:24:51;97114.09;;;11.09;89.43
21574;BME280;10948;48.706;9.258;2023-04-25T07:27:18;97123.09;;;11.05;89.84
21574;BME280;10948;48.706;9.258;2023-04-25T07:29:43;97114.56;;;11.03;91.42
21574;BME280;10948;48.706;9.258;2023-04-25T07:32:09;97121.00;;;11.10;92.03
21574;BME280;10948;48.706;9.258;2023-04-25T07:34:36;97115.53;;;11.13;93.31
21574;BME280;10948;48.706;9.258;2023-04-25T07:37:03;97124.13;;;11.02;94.31
21574;BME280;10948;48.706;9.258;2023-04-25T07:39:29;97120.66;;;10.91;95.30
21574;BME280;10948;48.706;9.258;2023-04-25T07:41:54;97126.63;;;11.04;95.76
21574;BME280;10948;48.706;9.258;2023-04-25T07:44:19;97125.59;;;11.06;95.96
21574;BME280;10948;48.706;9.258;2023-04-25T07:46:45;97133.88;;;11.11;97.19
21574;BME280;10948;48.706;9.258;2023-04-25T07:49:10;97138.13;;;10.89;97.41
21574;BME280;10948;48.706;9.258;2023-04-25T07:51:36;97144.78;;;10.93;96.78
21574;BME280;10948;48.706;9.258;2023-04-25T07:54:01;97146.69;;;10.91;99.17
21574;BME280;10948;48.706;9.258;2023-04-25T07:56:26;97149.75;;;10.96;99.79
21574;BME280;10948;48.706;9.258;2023-04-25T07:58:52;97153.97;;;10.86;100.00
21574;BME280;10948;48.706;9.258;2023-04-25T08:01:17;97153.31;;;10.95;100.00
21574;BME280;10948;48.706;9.258;2023-04-25T08:03:44;97154.75;;;10.99;100.00
21574;BME280;10948;48.706;9.258;2023-04-25T08:06:10;97165.69;;;11.04;100.00
21574;BME280;10948;48.706;9.258;2023-04-25T08:08:35;97162.25;;;11.03;100.00
21574;BME280;10948;48.706;9.258;2023-04-25T08:11:00;97167.78;;;10.99;100.00
21574;BME280;10948;48.706;9.258;2023-04-25T08:13:25;97171.72;;;11.04;100.00
21574;BME280;10948;48.706;9.258;2023-04-25T08:15:51;97171.34;;;11.21;100.00
21574;BME280;10948;48.706;9.258;2023-04-25T08:18:16;97177.16;;;11.25;100.00
21574;BME280;10948;48.706;9.258;2023-04-25T08:20:42;97183.00;;;11.16;100.00
21574;BME280;10948;48.706;9.258;2023-04-25T08:23:08;97181.16;;;11.18;100.00
21574;BME280;10948;48.706;9.258;2023-04-25T08:25:33;97180.03;;;11.09;100.00
21574;BME280;10948;48.706;9.258;2023-04-25T08:27:59;97182.72;;;11.20;100.00
21574;BME280;10948;48.706;9.258;2023-04-25T08:30:24;97188.72;;;10.97;100.00
21574;BME280;10948;48.706;9.258;2023-04-25T08:32:50;97193.66;;;11.13;100.00
21574;BME280;10948;48.706;9.258;2023-04-25T08:35:15;97195.91;;;10.94;100.00
21574;BME280;10948;48.706;9.258;2023-04-25T08:37:42;97194.75;;;10.98;100.00
21574;BME280;10948;48.706;9.258;2023-04-25T08:40:07;97204.44;;;10.96;100.00
21574;BME280;10948;48.706;9.258;2023-04-25T08:42:36;97205.47;;;11.06;100.00
21574;BME280;10948;48.706;9.258;2023-04-25T08:45:02;97212.03;;;10.99;100.00
21574;BME280;10948;48.706;9.258;2023-04-25T08:47:28;97212.84;;;11.12;100.00
21574;BME280;10948;48.706;9.258;2023-04-25T08:49:54;97213.28;;;11.06;100.00
21574;BME280;10948;48.706;9.258;2023-04-25T08:52:23;97218.66;;;11.15;100.00
21574;BME280;10948;48.706;9.258;2023-04-25T08:54:49;97218.25;;;11.09;100.00
21574;BME280;10948;48.706;9.258;2023-04-25T08:57:16;97222.03;;;11.05;100.00
21574;BME280;10948;48.706;9.258;2023-04-25T08:59:42;97226.81;;;11.11;100.00
21574;BME280;10948;48.706;9.258;2023-04-25T09:02:11;97232.00;;;11.11;100.00
21574;BME280;10948;48.706;9.258;2023-04-25T09:04:39;97234.28;;;11.15;100.00
21574;BME280;10948;48.706;9.258;2023-04-25T09:07:05;97233.06;;;11.08;100.00
21574;BME280;10948;48.706;9.258;2023-04-25T09:09:30;97237.31;;;11.09;100.00
21574;BME280;10948;48.706;9.258;2023-04-25T09:11:56;97240.16;;;10.94;100.00
21574;BME280;10948;48.706;9.258;2023-04-25T09:14:22;97242.19;;;11.14;100.00
21574;BME280;10948;48.706;9.258;2023-04-25T09:17:06;97250.47;;;10.95;100.00
21574;BME280;10948;48.706;9.258;2023-04-25T09:19:34;97248.34;;;11.13;100.00
21574;BME280;10948;48.706;9.258;2023-04-25T09:22:01;97257.69;;;11.28;100.00
21574;BME280;10948;48.706;9.258;2023-04-25T09:26:56;97263.47;;;11.08;100.00
21574;BME280;10948;48.706;9.258;2023-04-25T09:29:27;97262.84;;;11.17;100.00
21574;BME280;10948;48.706;9.258;2023-04-25T09:31:54;97275.75;;;11.06;100.00
21574;BME280;10948;48.706;9.258;2023-04-25T09:34:45;97272.56;;;10.90;100.00
21574;BME280;10948;48.706;9.258;2023-04-25T09:37:16;97270.84;;;11.14;100.00
21574;BME280;10948;48.706;9.258;2023-04-25T09:39:42;97282.47;;;10.85;100.00
21574;BME280;10948;48.706;9.258;2023-04-25T09:42:09;97275.38;;;10.87;100.00
21574;BME280;10948;48.706;9.258;2023-04-25T09:44:35;97283.44;;;11.20;100.00
21574;BME280;10948;48.706;9.258;2023-04-25T09:47:00;97285.75;;;11.12;100.00
21574;BME280;10948;48.706;9.258;2023-04-25T09:49:27;97289.72;;;11.05;100.00
21574;BME280;10948;48.706;9.258;2023-04-25T09:51:56;97291.53;;;11.28;100.00
21574;BME280;10948;48.706;9.258;2023-04-25T09:54:25;97299.19;;;11.06;100.00
21574;BME280;10948;48.706;9.258;2023-04-25T09:56:51;97296.50;;;11.07;100.00
21574;BME280;10948;48.706;9.258;2023-04-25T09:59:19;97298.59;;;10.90;100.00
21574;BME280;10948;48.706;9.258;2023-04-25T10:01:44;97303.88;;;11.01;100.00
21574;BME280;10948;48.706;9.258;2023-04-25T10:04:10;97305.56;;;10.89;100.00
21574;BME280;10948;48.706;9.258;2023-04-25T10:06:37;97307.84;;;10.94;100.00
21574;BME280;10948;48.706;9.258;2023-04-25T10:09:02;97308.25;;;10.88;100.00
21574;BME280;10948;48.706;9.258;2023-04-25T10:11:28;97312.63;;;10.75;100.00
21574;BME280;10948;48.706;9.258;2023-04-25T10:13:55;97315.56;;;10.58;100.00
21574;BME280;10948;48.706;9.258;2023-04-25T10:16:21;97319.94;;;10.70;100.00
21574;BME280;10948;48.706;9.258;2023-04-25T10:18:46;97319.19;;;10.68;100.00
21574;BME280;10948;48.706;9.258;2023-04-25T10:21:12;97327.44;;;10.75;100.00
21574;BME280;10948;48.706;9.258;2023-04-25T10:23:38;97334.31;;;10.63;100.00
21574;BME280;10948;48.706;9.258;2023-04-25T10:26:04;97337.66;;;10.90;100.00
21574;BME280;10948;48.706;9.258;2023-04-25T10:28:32;97339.50;;;10.63;100.00
21574;BME280;10948;48.706;9.258;2023-04-25T10:31:15;97344.09;;;10.84;100.00
21574;BME280;10948;48.706;9.258;2023-04-25T10:33:41;97344.72;;;10.88;100.00
21574;BME280;10948;48.706;9.258;2023-04-25T10:36:08;97340.22;;;10.65;100.00
21574;BME280;10948;48.706;9.258;2023-04-25T10:38:34;97348.63;;;10.56;100.00
21574;BME280;10948;48.706;9.258;2023-04-25T10:41:04;97353.03;;;10.68;100.00
21574;BME280;10948;48.706;9.258;2023-04-25T10:43:43;97340.53;;;10.85;100.00
21574;BME280;10948;48.706;9.258;2023-04-25T10:46:27;97352.03;;;10.83;100.00
21574;BME280;10948;48.706;9.258;2023-04-25T10:48:55;97355.88;;;10.90;100.00
21574;BME280;10948;48.706;9.258;2023-04-25T10:51:22;97363.16;;;10.85;100.00
21574;BME280;10948;48.706;9.258;2023-04-25T10:54:04;97359.09;;;10.93;100.00
21574;BME280;10948;48.706;9.258;2023-04-25T10:56:37;97361.78;;;10.79;100.00
21574;BME280;10948;48.706;9.258;2023-04-25T10:59:11;97362.44;;;10.83;100.00
21574;BME280;10948;48.706;9.258;2023-04-25T11:04:03;97373.03;;;10.80;100.00
21574;BME280;10948;48.706;9.258;2023-04-25T11:08:54;97370.13;;;10.97;100.00
21574;BME280;10948;48.706;9.258;2023-04-25T11:11:20;97369.59;;;10.92;100.00
21574;BME280;10948;48.706;9.258;2023-04-25T11:13:51;97380.75;;;11.19;100.00
21574;BME280;10948;48.706;9.258;2023-04-25T11:16:16;97378.03;;;11.20;100.00
21574;BME280;10948;48.706;9.258;2023-04-25T11:18:42;97385.00;;;11.20;100.00
21574;BME280;10948;48.706;9.258;2023-04-25T11:21:08;97394.31;;;11.24;100.00
21574;BME280;10948;48.706;9.258;2023-04-25T11:23:33;97402.72;;;11.15;100.00
21574;BME280;10948;48.706;9.258;2023-04-25T11:25:59;97399.63;;;11.10;100.00
21574;BME280;10948;48.706;9.258;2023-04-25T11:28:26;97394.59;;;11.07;100.00
21574;BME280;10948;48.706;9.258;2023-04-25T11:30:51;97405.63;;;11.10;100.00
21574;BME280;10948;48.706;9.258;2023-04-25T11:33:17;97411.56;;;11.00;99.57
21574;BME280;10948;48.706;9.258;2023-04-25T11:35:42;97404.31;;;11.30;98.42
21574;BME280;10948;48.706;9.258;2023-04-25T11:38:08;97405.53;;;11.12;97.47
21574;BME280;10948;48.706;9.258;2023-04-25T11:40:34;97411.06;;;11.20;97.74
21574;BME280;10948;48.706;9.258;2023-04-25T11:43:00;97417.94;;;11.33;97.48
21574;BME280;10948;48.706;9.258;2023-04-25T11:45:26;97410.53;;;11.65;95.98
21574;BME280;10948;48.706;9.258;2023-04-25T11:47:52;97411.81;;;11.59;96.22
21574;BME280;10948;48.706;9.258;2023-04-25T11:50:18;97416.56;;;11.53;94.25
21574;BME280;10948;48.706;9.258;2023-04-25T11:52:44;97417.63;;;11.38;95.00
21574;BME280;10948;48.706;9.258;2023-04-25T11:55:12;97423.88;;;11.35;94.73
21574;BME280;10948;48.706;9.258;2023-04-25T11:57:38;97426.38;;;11.49;93.73
21574;BME280;10948;48.706;9.258;2023-04-25T12:00:05;97429.50;;;11.67;92.77
21574;BME280;10948;48.706;9.258;2023-04-25T12:02:31;97425.72;;;11.83;92.16
21574;BME280;10948;48.706;9.258;2023-04-25T12:04:59;97422.56;;;11.91;92.69
21574;BME280;10948;48.706;9.258;2023-04-25T12:07:28;97433.38;;;12.10;90.87
21574;BME280;10948;48.706;9.258;2023-04-25T12:09:53;97429.66;;;12.25;90.60
21574;BME280;10948;48.706;9.258;2023-04-25T12:12:18;97432.34;;;12.00;91.45
21574;BME280;10948;48.706;9.258;2023-04-25T12:14:46;97436.13;;;11.96;91.58
21574;BME280;10948;48.706;9.258;2023-04-25T12:17:12;97434.06;;;11.88;92.84
21574;BME280;10948;48.706;9.258;2023-04-25T12:19:38;97440.31;;;11.86;93.01
21574;BME280;10948;48.706;9.258;2023-04-25T12:22:20;97435.91;;;11.99;92.49
21574;BME280;10948;48.706;9.258;2023-04-25T12:24:46;97440.88;;;12.02;91.61
21574;BME280;10948;48.706;9.258;2023-04-25T12:27:13;97445.09;;;11.92;91.90
21574;BME280;10948;48.706;9.258;2023-04-25T12:29:49;97443.44;;;11.91;91.38
21574;BME280;10948;48.706;9.258;2023-04-25T12:32:16;97447.09;;;11.88;88.73
21574;BME280;10948;48.706;9.258;2023-04-25T12:34:43;97447.69;;;11.92;91.51
21574;BME280;10948;48.706;9.258;2023-04-25T12:37:08;97454.63;;;12.16;91.47
21574;BME280;10948;48.706;9.258;2023-04-25T12:39:34;97456.31;;;12.05;93.58
21574;BME280;10948;48.706;9.258;2023-04-25T12:41:59;97460.94;;;12.01;92.49
21574;BME280;10948;48.706;9.258;2023-04-25T12:44:24;97467.56;;;12.05;93.00
21574;BME280;10948;48.706;9.258;2023-04-25T12:46:50;97466.97;;;12.02;91.71
21574;BME280;10948;48.706;9.258;2023-04-25T12:49:16;97469.94;;;11.85;92.11
21574;BME280;10948;48.706;9.258;2023-04-25T12:51:41;97464.34;;;12.02;92.97
21574;BME280;10948;48.706;9.258;2023-04-25T12:54:06;97469.59;;;12.25;92.16
21574;BME280;10948;48.706;9.258;2023-04-25T12:56:32;97461.16;;;12.58;90.08